Terminal Aerodrome Forecast
Issued by NWS

Home | Current Version | Previous Version | Text Only | Print | Product List | Glossary On
Versions: 1 2 3 4 5 6 7 8 9 10 11 12 13 14 15 16 17 18
805
FTUS44 KTSA 190214 AAA
TAFFYV
TAF AMD
KFYV 190214Z 1902/1924 00000KT P6SM SKC WS005/33030KT
     FM191800 30007KT P6SM SKC=

USA.gov is the U.S. government's official web portal to all federal, state and local government web resources and services.